createdAt,value
2018-06-21T00:00:58.792Z,101206.55
2018-06-21T00:05:59.068Z,101195.36
2018-06-21T00:08:30.600Z,101193.97
2018-06-21T00:11:01.884Z,101189.81
2018-06-21T00:13:34.570Z,101183.91
2018-06-21T00:16:06.015Z,101179.38
2018-06-21T00:18:42.496Z,101178.66
2018-06-21T00:21:13.493Z,101175.83
2018-06-21T00:23:43.853Z,101177.55
2018-06-21T00:26:14.492Z,101176.11
2018-06-21T00:28:44.852Z,101182.50
2018-06-21T00:31:16.655Z,101175.77
2018-06-21T00:33:47.071Z,101174.93
2018-06-21T00:36:20.473Z,101175.91
2018-06-21T00:38:50.753Z,101166.84
2018-06-21T00:41:20.982Z,101179.03
2018-06-21T00:43:51.892Z,101180.07
2018-06-21T00:46:23.197Z,101171.49
2018-06-21T00:48:53.564Z,101169.18
2018-06-21T00:51:24.128Z,101170.59
2018-06-21T00:53:54.496Z,101169.75
2018-06-21T00:56:25.112Z,101164.45
2018-06-21T00:58:55.429Z,101170.33
2018-06-21T01:01:26.850Z,101170.77
2018-06-21T01:03:57.766Z,101161.12
2018-06-21T01:06:28.108Z,101160.93
2018-06-21T01:08:58.517Z,101159.25
2018-06-21T01:11:29.205Z,101157.05
2018-06-21T01:13:59.620Z,101155.05
2018-06-21T01:16:30.118Z,101157.69
2018-06-21T01:19:01.893Z,101154.94
2018-06-21T01:25:12.568Z,101141.56
2018-06-21T01:27:43.806Z,101133.31
2018-06-21T01:30:16.392Z,101126.00
2018-06-21T01:32:47.867Z,101121.52
2018-06-21T01:35:20.449Z,101120.88
2018-06-21T01:38:04.027Z,101111.37
2018-06-21T01:40:34.786Z,101107.52
2018-06-21T01:43:05.843Z,101109.50
2018-06-21T01:45:37.507Z,101098.30
2018-06-21T01:48:09.263Z,101091.84
2018-06-21T01:50:39.864Z,101087.39
2018-06-21T01:53:10.435Z,101079.43
2018-06-21T01:55:40.850Z,101080.05
2018-06-21T01:58:11.784Z,101080.79
2018-06-21T02:00:42.760Z,101082.36
2018-06-21T02:03:16.891Z,101077.57
2018-06-21T02:05:47.239Z,101075.57
2018-06-21T02:08:17.570Z,101068.50
2018-06-21T02:10:48.578Z,101071.09
2018-06-21T02:13:19.641Z,101062.21
2018-06-21T02:18:20.423Z,101061.27
2018-06-21T02:20:56.002Z,101061.78
2018-06-21T02:26:07.471Z,101061.23
2018-06-21T02:28:38.926Z,101055.17
2018-06-21T02:31:09.789Z,101059.36
2018-06-21T02:33:40.833Z,101062.48
2018-06-21T02:36:11.355Z,101068.81
2018-06-21T02:38:41.743Z,101066.59
2018-06-21T02:41:12.292Z,101065.21
2018-06-21T02:43:43.036Z,101067.76
2018-06-21T02:46:13.958Z,101063.79
2018-06-21T02:48:45.434Z,101060.84
2018-06-21T02:51:15.896Z,101059.06
2018-06-21T02:53:48.127Z,101058.42
2018-06-21T02:56:18.947Z,101054.64
2018-06-21T02:58:49.369Z,101054.51
2018-06-21T03:01:20.577Z,101058.56
2018-06-21T03:03:52.097Z,101060.48
2018-06-21T03:06:23.891Z,101059.13
2018-06-21T03:08:55.392Z,101054.93
2018-06-21T03:11:26.535Z,101053.75
2018-06-21T03:13:57.768Z,101063.62
2018-06-21T03:16:30.573Z,101021.42
2018-06-21T03:19:02.604Z,101059.64
2018-06-21T03:21:33.330Z,101058.66
2018-06-21T03:24:04.405Z,101047.06
2018-06-21T03:26:37.066Z,101046.47
2018-06-21T03:29:07.304Z,101045.81
2018-06-21T03:31:38.742Z,101048.05
2018-06-21T03:34:09.460Z,101036.42
2018-06-21T03:36:40.626Z,101033.70
2018-06-21T03:39:10.985Z,101038.76
2018-06-21T03:41:41.769Z,101034.45
2018-06-21T03:44:12.093Z,101040.01
2018-06-21T03:46:49.223Z,101029.36
2018-06-21T03:49:19.497Z,101029.96
2018-06-21T03:51:50.762Z,101023.86
2018-06-21T03:54:21.721Z,101023.84
2018-06-21T03:56:52.796Z,101034.16
2018-06-21T03:59:23.044Z,101026.13
2018-06-21T04:01:53.791Z,101027.54
2018-06-21T04:04:25.297Z,101030.30
2018-06-21T04:06:55.709Z,101034.40
2018-06-21T04:09:26.196Z,101028.57
2018-06-21T04:11:57.518Z,101029.27
2018-06-21T04:14:34.677Z,101028.29
2018-06-21T04:17:05.586Z,101035.75
2018-06-21T04:19:36.560Z,101034.95
2018-06-21T04:22:09.235Z,101035.81
2018-06-21T04:24:44.424Z,101033.05
2018-06-21T04:27:18.627Z,101028.39
2018-06-21T04:29:55.351Z,101032.64
2018-06-21T04:32:27.295Z,101026.66
2018-06-21T04:34:59.144Z,101035.24
2018-06-21T04:37:29.551Z,101029.09
2018-06-21T04:40:02.265Z,101034.69
2018-06-21T04:42:32.522Z,101026.17
2018-06-21T04:45:05.719Z,101020.19
2018-06-21T04:47:36.637Z,101026.77
2018-06-21T04:50:07.818Z,101035.27
2018-06-21T04:52:38.252Z,101028.60
2018-06-21T04:55:10.613Z,101032.55
2018-06-21T04:57:43.043Z,101033.97
2018-06-21T05:00:18.339Z,101035.51
2018-06-21T05:02:49.587Z,101038.20
2018-06-21T05:05:20.451Z,101035.41
2018-06-21T05:07:52.122Z,101028.12
2018-06-21T05:10:22.865Z,101047.05
2018-06-21T05:12:53.416Z,101037.30
2018-06-21T05:15:25.482Z,101046.46
2018-06-21T05:18:10.530Z,101044.86
2018-06-21T05:20:41.265Z,101036.45
2018-06-21T05:23:13.052Z,101034.63
2018-06-21T05:25:44.574Z,101041.98
2018-06-21T05:28:16.941Z,101033.93
2018-06-21T05:30:49.743Z,101027.28
2018-06-21T05:33:21.693Z,101045.34
2018-06-21T05:35:54.904Z,101045.81
2018-06-21T05:38:27.230Z,101044.31
2018-06-21T05:40:57.786Z,101036.33
2018-06-21T05:43:29.693Z,101042.56
2018-06-21T05:46:01.710Z,101045.27
2018-06-21T05:48:31.889Z,101038.33
2018-06-21T05:51:05.215Z,101049.65
2018-06-21T05:53:36.106Z,101051.35
2018-06-21T05:56:07.075Z,101049.85
2018-06-21T05:58:38.130Z,101051.19
2018-06-21T06:01:10.696Z,101052.52
2018-06-21T06:03:43.540Z,101050.68
2018-06-21T06:06:15.098Z,101063.59
2018-06-21T06:08:47.257Z,101066.77
2018-06-21T06:11:17.756Z,101063.98
2018-06-21T06:13:50.650Z,101059.48
2018-06-21T06:16:21.228Z,101064.55
2018-06-21T06:18:51.806Z,101063.55
2018-06-21T06:21:28.254Z,101071.65
2018-06-21T06:23:59.744Z,101073.85
2018-06-21T06:26:30.219Z,101076.09
2018-06-21T06:29:02.242Z,101083.98
2018-06-21T06:31:33.507Z,101076.75
2018-06-21T06:34:03.927Z,101075.92
2018-06-21T06:36:38.583Z,101085.48
2018-06-21T06:39:21.288Z,101095.30
2018-06-21T06:41:53.046Z,101097.31
2018-06-21T06:44:24.127Z,101094.65
2018-06-21T06:46:57.143Z,101089.42
2018-06-21T06:49:27.702Z,101095.02
2018-06-21T06:51:59.687Z,101097.26
2018-06-21T06:54:30.605Z,101100.03
2018-06-21T06:57:01.941Z,101103.71
2018-06-21T06:59:47.793Z,101098.03
2018-06-21T07:02:18.447Z,101103.36
2018-06-21T07:05:03.580Z,101109.28
2018-06-21T07:07:36.698Z,101119.74
2018-06-21T07:10:08.488Z,101108.02
2018-06-21T07:12:38.901Z,101114.61
2018-06-21T07:15:14.189Z,101122.32
2018-06-21T07:17:44.854Z,101120.46
2018-06-21T07:20:15.482Z,101121.11
2018-06-21T07:23:02.522Z,101130.12
2018-06-21T07:25:33.658Z,101131.87
2018-06-21T07:28:05.681Z,101128.91
2018-06-21T07:30:36.384Z,100798.93
2018-06-21T07:33:09.246Z,101138.55
2018-06-21T07:35:41.007Z,101148.47
2018-06-21T07:38:11.293Z,101142.97
2018-06-21T07:40:43.339Z,101159.77
2018-06-21T07:43:13.987Z,101152.67
2018-06-21T07:45:45.220Z,101149.59
2018-06-21T07:48:18.757Z,101155.06
2018-06-21T07:53:46.167Z,101176.14
2018-06-21T07:56:26.618Z,101195.98
2018-06-21T07:59:06.583Z,101202.26
2018-06-21T08:01:46.259Z,101198.64
2018-06-21T08:04:18.710Z,101212.95
2018-06-21T08:06:51.482Z,101215.56
2018-06-21T08:09:27.228Z,101212.66
2018-06-21T08:11:58.034Z,101213.75
2018-06-21T08:14:29.561Z,101224.55
2018-06-21T08:17:00.420Z,101176.22
2018-06-21T08:19:31.877Z,101221.48
2018-06-21T08:22:04.412Z,101234.59
2018-06-21T08:24:35.022Z,101227.56
2018-06-21T08:27:07.703Z,101237.59
2018-06-21T08:29:38.019Z,101234.33
2018-06-21T08:32:10.697Z,101247.98
2018-06-21T08:34:41.931Z,101248.02
2018-06-21T08:37:13.354Z,101243.45
2018-06-21T08:39:43.577Z,101254.55
2018-06-21T08:42:14.837Z,101256.27
2018-06-21T08:44:48.415Z,101262.72
2018-06-21T08:47:19.965Z,101277.10
2018-06-21T08:49:53.412Z,101280.66
2018-06-21T08:52:24.649Z,101287.25
2018-06-21T08:54:58.270Z,101287.56
2018-06-21T08:57:30.178Z,101287.17
2018-06-21T09:00:00.528Z,101291.05
2018-06-21T09:02:40.136Z,101299.89
2018-06-21T09:05:11.542Z,101306.42
2018-06-21T09:07:49.286Z,101311.11
2018-06-21T09:10:24.399Z,101320.00
2018-06-21T09:12:58.680Z,101325.83
2018-06-21T09:15:31.736Z,101328.01
2018-06-21T09:18:02.625Z,101323.59
2018-06-21T09:20:35.819Z,101317.71
2018-06-21T09:23:10.834Z,101326.28
2018-06-21T09:25:42.530Z,101328.66
2018-06-21T09:28:16.418Z,101339.25
2018-06-21T09:30:49.851Z,101328.45
2018-06-21T09:33:23.807Z,101339.20
2018-06-21T09:35:56.225Z,101342.10
2018-06-21T09:38:32.974Z,101348.36
2018-06-21T09:41:09.204Z,101358.48
2018-06-21T09:43:50.294Z,101364.34
2018-06-21T09:46:33.878Z,101369.78
2018-06-21T09:49:03.502Z,101364.39
2018-06-21T09:54:13.389Z,101365.58
2018-06-21T09:56:46.822Z,101278.07
2018-06-21T09:59:21.064Z,101363.02
2018-06-21T10:01:55.994Z,101363.67
2018-06-21T10:04:27.732Z,101368.77
2018-06-21T10:07:02.114Z,101366.16
2018-06-21T10:09:41.541Z,101388.23
2018-06-21T10:12:23.623Z,101392.05
2018-06-21T10:14:55.522Z,101382.95
2018-06-21T10:17:28.435Z,101382.80
2018-06-21T10:19:59.864Z,101387.73
2018-06-21T10:22:35.791Z,101385.26
2018-06-21T10:25:19.694Z,101382.41
2018-06-21T10:30:42.178Z,101401.27
2018-06-21T10:33:20.465Z,101401.78
2018-06-21T10:35:54.765Z,101413.45
2018-06-21T10:38:31.047Z,101429.27
2018-06-21T10:41:05.179Z,101402.85
2018-06-21T10:43:39.083Z,101421.78
2018-06-21T10:46:29.756Z,101421.73
2018-06-21T10:49:06.534Z,101427.53
2018-06-21T10:51:38.600Z,101429.07
2018-06-21T10:54:10.667Z,101418.80
2018-06-21T10:56:46.747Z,101425.31
2018-06-21T10:59:21.191Z,101420.09
2018-06-21T11:01:55.571Z,101431.28
2018-06-21T11:04:27.416Z,101437.27
2018-06-21T11:07:02.739Z,101449.36
2018-06-21T11:09:37.819Z,101437.31
2018-06-21T11:12:12.420Z,101435.05
2018-06-21T11:14:43.918Z,101446.05
2018-06-21T11:17:15.598Z,101465.73
2018-06-21T11:19:51.522Z,101460.29
2018-06-21T11:22:24.657Z,101449.30
2018-06-21T11:27:32.792Z,101471.20
2018-06-21T11:30:22.330Z,101476.77
2018-06-21T11:32:53.422Z,101477.69
2018-06-21T11:35:26.381Z,101485.95
2018-06-21T11:38:19.526Z,101476.80
2018-06-21T11:40:52.932Z,101495.78
2018-06-21T11:43:25.237Z,101495.31
2018-06-21T11:45:59.317Z,101491.25
2018-06-21T11:48:35.592Z,101499.86
2018-06-21T11:51:18.107Z,101488.47
2018-06-21T11:53:52.473Z,101492.55
2018-06-21T11:56:23.386Z,101500.52
2018-06-21T11:58:55.743Z,101494.04
2018-06-21T12:01:30.413Z,101504.78
2018-06-21T12:06:42.263Z,101506.31
2018-06-21T12:09:16.917Z,101513.19
2018-06-21T12:11:49.100Z,101510.15
2018-06-21T12:14:23.436Z,101517.48
2018-06-21T12:19:18.210Z,101459.43
2018-06-21T12:21:49.046Z,101527.30
2018-06-21T12:24:21.629Z,101528.94
2018-06-21T12:26:55.360Z,101524.86
2018-06-21T12:29:29.307Z,101514.11
2018-06-21T12:32:02.507Z,101531.38
2018-06-21T12:34:44.490Z,101546.16
2018-06-21T12:37:19.825Z,101533.41
2018-06-21T12:39:51.493Z,101546.89
2018-06-21T12:42:30.012Z,101547.22
2018-06-21T12:47:58.657Z,101553.83
2018-06-21T12:50:31.330Z,101553.31
2018-06-21T12:53:04.800Z,101559.33
2018-06-21T12:55:39.274Z,101569.97
2018-06-21T12:58:11.171Z,101559.37
2018-06-21T13:00:44.556Z,101565.42
2018-06-21T13:03:16.422Z,101578.79
2018-06-21T13:05:55.240Z,101566.93
2018-06-21T13:08:38.625Z,101568.45
2018-06-21T13:11:42.642Z,101590.91
2018-06-21T13:14:26.383Z,101589.55
2018-06-21T13:17:04.018Z,101579.05
2018-06-21T13:19:34.452Z,101602.73
2018-06-21T13:22:09.058Z,101590.81
2018-06-21T13:24:45.165Z,101593.30
2018-06-21T13:27:27.319Z,101595.24
2018-06-21T13:30:00.611Z,101602.98
2018-06-21T13:32:36.893Z,101537.86
2018-06-21T13:35:13.781Z,101615.86
2018-06-21T13:37:44.689Z,101611.78
2018-06-21T13:40:21.312Z,101616.13
2018-06-21T13:42:59.526Z,101618.72
2018-06-21T13:45:34.631Z,101614.08
2018-06-21T13:48:14.300Z,101617.69
2018-06-21T13:50:49.498Z,101619.70
2018-06-21T13:53:28.163Z,101631.56
2018-06-21T13:55:59.949Z,101633.17
2018-06-21T13:58:35.124Z,101634.03
2018-06-21T14:01:21.329Z,101642.03
2018-06-21T14:04:01.095Z,101643.82
2018-06-21T14:06:36.951Z,101644.80
2018-06-21T14:12:03.714Z,101636.13
2018-06-21T14:14:41.826Z,101639.83
2018-06-21T14:17:32.381Z,101648.71
2018-06-21T14:20:04.369Z,101633.63
2018-06-21T14:22:39.208Z,101654.50
2018-06-21T14:25:10.401Z,101651.77
2018-06-21T14:27:42.027Z,101655.30
2018-06-21T14:30:19.629Z,101656.98
2018-06-21T14:32:57.636Z,101666.09
2018-06-21T14:35:30.508Z,101664.75
2018-06-21T14:38:07.098Z,101671.80
2018-06-21T14:40:42.775Z,101670.09
2018-06-21T14:43:14.290Z,101643.94
2018-06-21T14:48:36.700Z,101673.55
2018-06-21T14:51:07.516Z,101673.20
2018-06-21T14:53:41.639Z,101677.77
2018-06-21T14:56:14.422Z,101682.94
2018-06-21T14:58:49.085Z,101681.75
2018-06-21T15:01:22.473Z,101680.64
2018-06-21T15:03:54.379Z,101691.46
2018-06-21T15:06:25.475Z,101687.16
2018-06-21T15:08:56.400Z,101698.84
2018-06-21T15:11:28.051Z,101691.13
2018-06-21T15:14:01.530Z,101701.03
2018-06-21T15:16:35.733Z,101657.00
2018-06-21T15:19:06.003Z,101708.08
2018-06-21T15:21:36.837Z,101695.28
2018-06-21T15:24:07.314Z,101710.20
2018-06-21T15:26:37.566Z,101713.59
2018-06-21T15:29:24.486Z,101713.75
2018-06-21T15:31:59.304Z,101713.20
2018-06-21T15:34:33.235Z,101713.45
2018-06-21T15:37:04.236Z,101714.39
2018-06-21T15:39:36.532Z,101712.10
2018-06-21T15:42:07.667Z,101718.62
2018-06-21T15:44:38.710Z,101725.19
2018-06-21T15:47:13.730Z,101727.97
2018-06-21T15:49:48.298Z,101723.66
2018-06-21T15:52:20.133Z,101732.31
2018-06-21T15:54:51.440Z,101734.20
2018-06-21T15:57:25.616Z,101747.14
2018-06-21T15:59:59.672Z,101740.80
2018-06-21T16:02:34.014Z,101737.49
2018-06-21T16:05:07.237Z,101733.98
2018-06-21T16:07:42.629Z,101734.47
2018-06-21T16:10:15.519Z,101741.23
2018-06-21T16:12:46.246Z,101746.31
2018-06-21T16:15:23.136Z,101745.95
2018-06-21T16:17:55.746Z,101736.77
2018-06-21T16:20:29.927Z,101748.92
2018-06-21T16:23:01.505Z,101748.62
2018-06-21T16:25:35.984Z,101750.09
2018-06-21T16:28:13.552Z,101752.45
2018-06-21T16:30:48.121Z,101757.48
2018-06-21T16:33:28.240Z,101769.75
2018-06-21T16:36:01.223Z,101766.72
2018-06-21T16:38:33.447Z,101757.03
2018-06-21T16:41:05.216Z,101765.77
2018-06-21T16:43:35.591Z,101761.55
2018-06-21T16:46:13.182Z,101763.75
2018-06-21T16:48:47.372Z,101765.19
2018-06-21T16:51:18.897Z,101763.77
2018-06-21T16:53:52.854Z,101768.52
2018-06-21T16:56:26.511Z,101765.75
2018-06-21T16:59:03.523Z,101769.00
2018-06-21T17:01:38.094Z,101769.56
2018-06-21T17:04:13.070Z,101766.55
2018-06-21T17:07:08.289Z,101774.34
2018-06-21T17:09:46.879Z,101781.64
2018-06-21T17:12:17.717Z,101780.06
2018-06-21T17:14:48.881Z,101767.73
2018-06-21T17:17:23.062Z,101778.58
2018-06-21T17:20:13.904Z,101774.19
2018-06-21T17:22:50.317Z,101775.87
2018-06-21T17:25:21.747Z,101775.88
2018-06-21T17:28:46.532Z,101776.21
2018-06-21T17:31:25.250Z,101792.09
2018-06-21T17:33:56.155Z,101794.62
2018-06-21T17:36:33.191Z,101789.36
2018-06-21T17:39:06.853Z,101794.41
2018-06-21T17:41:45.604Z,101790.55
2018-06-21T17:44:21.583Z,101802.86
2018-06-21T17:46:54.686Z,101794.23
2018-06-21T17:49:31.398Z,101712.92
2018-06-21T17:52:02.813Z,101804.53
2018-06-21T17:54:34.786Z,101807.39
2018-06-21T17:57:06.673Z,101665.16
2018-06-21T17:59:43.878Z,101803.50
2018-06-21T18:02:16.489Z,101802.11
2018-06-21T18:04:49.451Z,101806.45
2018-06-21T18:07:21.301Z,101806.05
2018-06-21T18:09:52.531Z,101807.41
2018-06-21T18:12:26.381Z,101817.58
2018-06-21T18:17:50.753Z,101820.89
2018-06-21T18:20:22.232Z,101824.98
2018-06-21T18:23:13.411Z,101820.48
2018-06-21T18:25:47.291Z,101823.20
2018-06-21T18:28:24.533Z,101808.70
2018-06-21T18:30:57.819Z,101822.00
2018-06-21T18:33:34.421Z,101823.34
2018-06-21T18:36:06.974Z,101827.22
2018-06-21T18:38:37.986Z,101832.73
2018-06-21T18:41:11.483Z,101830.91
2018-06-21T18:43:50.269Z,101831.13
2018-06-21T18:46:23.511Z,101839.34
2018-06-21T18:48:54.664Z,101828.83
2018-06-21T18:51:26.152Z,101833.32
2018-06-21T18:53:57.722Z,101850.27
2018-06-21T18:56:28.455Z,101847.09
2018-06-21T18:59:01.049Z,101846.08
2018-06-21T19:01:35.212Z,101841.43
2018-06-21T19:04:11.040Z,101851.06
2018-06-21T19:06:47.525Z,101852.98
2018-06-21T19:09:25.389Z,101851.72
2018-06-21T19:12:06.145Z,101853.38
2018-06-21T19:14:37.374Z,101856.47
2018-06-21T19:17:10.335Z,101862.06
2018-06-21T19:19:43.716Z,101869.78
2018-06-21T19:22:16.052Z,101866.45
2018-06-21T19:24:49.185Z,101872.47
2018-06-21T19:27:28.661Z,101873.36
2018-06-21T19:30:14.989Z,101876.20
2018-06-21T19:32:48.254Z,101881.65
2018-06-21T19:35:20.762Z,101882.53
2018-06-21T19:37:52.676Z,101898.63
2018-06-21T19:43:01.354Z,101899.95
2018-06-21T19:45:44.037Z,101889.45
2018-06-21T19:48:43.385Z,101897.13
2018-06-21T19:51:17.634Z,101904.30
2018-06-21T19:53:53.021Z,101902.06
2018-06-21T19:56:27.164Z,101905.34
2018-06-21T19:59:01.762Z,101912.11
2018-06-21T20:01:50.789Z,101911.66
2018-06-21T20:04:23.443Z,101908.66
2018-06-21T20:06:57.958Z,101924.78
2018-06-21T20:09:29.499Z,101926.55
2018-06-21T20:12:02.215Z,101924.63
2018-06-21T20:14:37.570Z,101926.38
2018-06-21T20:17:12.229Z,101931.55
2018-06-21T20:19:59.283Z,101931.93
2018-06-21T20:22:32.223Z,101934.81
2018-06-21T20:25:09.461Z,101935.30
2018-06-21T20:27:40.459Z,101933.88
2018-06-21T20:30:14.082Z,101933.90
2018-06-21T20:32:54.057Z,101945.37
2018-06-21T20:35:28.233Z,101952.17
2018-06-21T20:38:08.451Z,101950.72
2018-06-21T20:40:45.885Z,101952.98
2018-06-21T20:43:19.464Z,101958.66
2018-06-21T20:45:51.294Z,101953.42
2018-06-21T20:48:30.086Z,101953.01
2018-06-21T20:51:07.310Z,101956.61
2018-06-21T20:53:37.925Z,101959.59
2018-06-21T20:56:10.166Z,101956.13
2018-06-21T20:58:43.275Z,101955.84
2018-06-21T21:01:19.125Z,101960.04
2018-06-21T21:03:52.016Z,101971.64
2018-06-21T21:06:27.303Z,101971.12
2018-06-21T21:09:12.665Z,101986.69
2018-06-21T21:11:46.330Z,101928.30
2018-06-21T21:14:21.388Z,101969.88
2018-06-21T21:16:54.398Z,101980.53
2018-06-21T21:19:28.063Z,101977.72
2018-06-21T21:22:00.237Z,101984.03
2018-06-21T21:24:32.377Z,101979.28
2018-06-21T21:27:07.026Z,101991.22
2018-06-21T21:30:09.315Z,101987.56
2018-06-21T21:32:46.202Z,101988.95
2018-06-21T21:35:18.630Z,101991.86
2018-06-21T21:37:50.794Z,101981.46
2018-06-21T21:40:37.395Z,101985.66
2018-06-21T21:43:08.386Z,101996.73
2018-06-21T21:45:49.342Z,101989.02
2018-06-21T21:48:33.780Z,101984.58
2018-06-21T21:51:05.970Z,101993.59
2018-06-21T21:53:45.684Z,101987.05
2018-06-21T21:59:35.011Z,101992.42
2018-06-21T22:02:09.691Z,101996.17
2018-06-21T22:04:44.917Z,101988.81
2018-06-21T22:07:17.953Z,101988.25
2018-06-21T22:09:52.694Z,101983.94
2018-06-21T22:12:28.535Z,101983.09
2018-06-21T22:15:00.483Z,101988.70
2018-06-21T22:17:34.334Z,101977.40
2018-06-21T22:20:07.676Z,101982.89
2018-06-21T22:22:39.276Z,101976.39
2018-06-21T22:25:15.202Z,101972.09
2018-06-21T22:27:46.737Z,101977.03
2018-06-21T22:33:09.401Z,101914.30
2018-06-21T22:35:40.736Z,101983.51
2018-06-21T22:38:15.322Z,101984.48
2018-06-21T22:40:54.266Z,101988.23
2018-06-21T22:43:31.102Z,101984.72
2018-06-21T22:46:06.088Z,101977.23
2018-06-21T22:48:40.180Z,101981.58
2018-06-21T22:51:14.390Z,101981.92
2018-06-21T22:53:46.056Z,101973.97
2018-06-21T22:56:21.103Z,101971.42
2018-06-21T22:58:55.458Z,101973.91
2018-06-21T23:01:28.872Z,101973.58
2018-06-21T23:04:10.162Z,101971.87
2018-06-21T23:06:43.938Z,101967.45
2018-06-21T23:09:16.638Z,101975.80
2018-06-21T23:11:48.221Z,101976.08
2018-06-21T23:14:23.098Z,101980.95
2018-06-21T23:17:01.633Z,101976.86
2018-06-21T23:22:10.740Z,101968.60
2018-06-21T23:24:43.612Z,101970.50
2018-06-21T23:27:14.723Z,101969.50
2018-06-21T23:29:45.271Z,101962.58
2018-06-21T23:32:24.575Z,101963.38
2018-06-21T23:34:55.322Z,101962.55
2018-06-21T23:37:26.555Z,101962.31
2018-06-21T23:39:57.264Z,101966.20
2018-06-21T23:42:28.701Z,101967.26
2018-06-21T23:45:00.254Z,101958.34
2018-06-21T23:47:40.318Z,101958.98
2018-06-21T23:50:10.691Z,101961.30
2018-06-21T23:52:41.346Z,101965.02
2018-06-21T23:55:13.210Z,101960.27
2018-06-21T23:57:45.213Z,101968.77
